createdAt,value
2023-04-16T00:05:00.834Z,100614.91
2023-04-16T00:10:05.801Z,100617.44
2023-04-16T00:15:09.500Z,100620.97
2023-04-16T00:20:12.507Z,100614.66
2023-04-16T00:25:16.710Z,100608.03
2023-04-16T00:30:19.650Z,100610.56
2023-04-16T00:35:22.651Z,100611.13
2023-04-16T00:40:29.679Z,100615.66
2023-04-16T00:45:32.637Z,100611.91
2023-04-16T00:50:35.678Z,100615.53
2023-04-16T00:55:40.912Z,100618.41
2023-04-16T01:00:43.896Z,100618.19
2023-04-16T01:05:49.281Z,100613.28
2023-04-16T01:10:53.477Z,100614.25
2023-04-16T01:15:56.296Z,100622.16
2023-04-16T01:21:01.027Z,100627.50
2023-04-16T01:26:03.962Z,100642.94
2023-04-16T01:31:06.901Z,100642.44
2023-04-16T01:36:40.914Z,100637.38
2023-04-16T01:41:44.027Z,100648.22
2023-04-16T01:46:46.977Z,100649.59
2023-04-16T01:51:53.020Z,100649.06
2023-04-16T01:56:55.919Z,100660.50
2023-04-16T02:02:02.354Z,100667.47
2023-04-16T02:07:06.806Z,100662.03
2023-04-16T02:12:11.367Z,100655.81
2023-04-16T02:17:15.492Z,100662.13
2023-04-16T02:22:20.689Z,100672.50
2023-04-16T02:27:24.243Z,100675.06
2023-04-16T02:32:34.113Z,100671.75
2023-04-16T02:37:40.811Z,100680.44
2023-04-16T02:42:43.790Z,100673.25
2023-04-16T02:47:46.694Z,100681.06
2023-04-16T02:52:51.589Z,100682.91
2023-04-16T02:57:54.564Z,100686.63
2023-04-16T03:02:57.630Z,100689.81
2023-04-16T03:08:02.020Z,100686.22
2023-04-16T03:13:06.024Z,100688.75
2023-04-16T03:18:08.852Z,100684.22
2023-04-16T03:23:13.081Z,100685.28
2023-04-16T03:28:16.188Z,100697.59
2023-04-16T03:33:19.391Z,100694.16
2023-04-16T03:38:23.934Z,100704.41
2023-04-16T03:43:27.305Z,100704.44
2023-04-16T03:48:30.436Z,100704.09
2023-04-16T03:53:35.856Z,100715.16
2023-04-16T03:58:38.836Z,100720.16
2023-04-16T04:03:41.942Z,100726.06
2023-04-16T04:08:46.384Z,100722.56
2023-04-16T04:13:50.627Z,100724.66
2023-04-16T04:18:53.588Z,100733.53
2023-04-16T04:23:59.934Z,100740.13
2023-04-16T04:29:05.689Z,100737.25
2023-04-16T04:34:08.564Z,100747.72
2023-04-16T04:39:12.993Z,100747.69
2023-04-16T04:44:19.308Z,100759.81
2023-04-16T04:49:22.232Z,100761.56
2023-04-16T04:54:26.538Z,100771.56
2023-04-16T04:59:29.958Z,100779.41
2023-04-16T05:04:33.120Z,100778.53
2023-04-16T05:09:38.468Z,100786.50
2023-04-16T05:14:41.328Z,100792.59
2023-04-16T05:19:44.155Z,100803.31
2023-04-16T05:24:48.360Z,100805.41
2023-04-16T05:29:51.264Z,100815.56
2023-04-16T05:34:54.102Z,100811.53
2023-04-16T05:39:58.259Z,100818.81
2023-04-16T05:45:01.080Z,100825.41
2023-04-16T05:50:03.934Z,100833.72
2023-04-16T05:55:08.777Z,100827.78
2023-04-16T06:00:12.221Z,100838.47
2023-04-16T06:05:15.086Z,100839.16
2023-04-16T06:10:19.434Z,100836.53
2023-04-16T06:15:22.331Z,100847.59
2023-04-16T06:20:25.474Z,100842.06
2023-04-16T06:25:29.645Z,100846.94
2023-04-16T06:30:32.534Z,100857.38
2023-04-16T06:35:35.875Z,100871.03
2023-04-16T06:40:40.155Z,100878.22
2023-04-16T06:45:42.974Z,100879.00
2023-04-16T06:50:45.827Z,100886.56
2023-04-16T06:55:50.122Z,100886.72
2023-04-16T07:00:53.202Z,100887.09
2023-04-16T07:05:56.176Z,100887.56
2023-04-16T07:11:00.940Z,100896.63
2023-04-16T07:16:03.803Z,100894.25
2023-04-16T07:21:06.757Z,100898.56
2023-04-16T07:26:11.526Z,100910.13
2023-04-16T07:31:14.355Z,100912.50
2023-04-16T07:36:17.187Z,100913.50
2023-04-16T07:41:21.411Z,100905.59
2023-04-16T07:46:24.991Z,100910.97
2023-04-16T07:51:29.376Z,100916.25
2023-04-16T07:56:33.527Z,100922.91
2023-04-16T08:01:36.506Z,100926.53
2023-04-16T08:06:39.324Z,100930.84
2023-04-16T08:11:43.749Z,100933.91
2023-04-16T08:16:47.558Z,100940.53
2023-04-16T08:21:50.414Z,100944.09
2023-04-16T08:26:57.000Z,100949.13
2023-04-16T08:32:03.442Z,100950.06
2023-04-16T08:37:06.332Z,100954.81
2023-04-16T08:42:15.720Z,100959.66
2023-04-16T08:47:18.871Z,100960.63
2023-04-16T08:52:24.965Z,100969.53
2023-04-16T08:57:36.498Z,100968.19
2023-04-16T09:02:39.925Z,100969.34
2023-04-16T09:07:43.475Z,100972.91
2023-04-16T09:12:47.652Z,100972.88
2023-04-16T09:17:50.693Z,100967.31
2023-04-16T09:22:53.695Z,100969.41
2023-04-16T09:27:57.968Z,100978.16
2023-04-16T09:33:16.517Z,100985.06
2023-04-16T09:38:19.899Z,100990.75
2023-04-16T09:43:24.064Z,100994.38
2023-04-16T09:48:33.046Z,100996.03
2023-04-16T09:53:36.717Z,101000.78
2023-04-16T09:58:41.434Z,101009.72
2023-04-16T10:03:44.428Z,101010.84
2023-04-16T10:08:49.916Z,101016.28
2023-04-16T10:13:54.616Z,101026.56
2023-04-16T10:18:58.061Z,101027.50
2023-04-16T10:24:01.693Z,101029.34
2023-04-16T10:29:08.434Z,101046.44
2023-04-16T10:34:11.883Z,101045.91
2023-04-16T10:39:17.107Z,101036.75
2023-04-16T10:44:21.700Z,101048.03
2023-04-16T10:49:25.573Z,101057.75
2023-04-16T10:54:29.989Z,101049.97
2023-04-16T10:59:35.916Z,101050.56
2023-04-16T11:04:40.439Z,101053.50
2023-04-16T11:09:57.632Z,101046.34
2023-04-16T11:15:03.228Z,101045.75
2023-04-16T11:20:21.163Z,101054.00
2023-04-16T11:25:25.415Z,101048.50
2023-04-16T11:30:35.097Z,101058.53
2023-04-16T11:35:39.225Z,101055.19
2023-04-16T11:40:43.484Z,101062.19
2023-04-16T11:45:58.522Z,101066.06
2023-04-16T11:51:01.473Z,101062.84
2023-04-16T11:56:04.804Z,101062.09
2023-04-16T12:01:10.140Z,101064.56
2023-04-16T12:06:12.977Z,101072.72
2023-04-16T12:11:16.027Z,101072.53
2023-04-16T12:16:21.794Z,101070.59
2023-04-16T12:21:24.581Z,101081.47
2023-04-16T12:26:27.407Z,101075.03
2023-04-16T12:31:39.133Z,101071.38
2023-04-16T12:36:42.489Z,101075.13
2023-04-16T12:41:45.686Z,101086.19
2023-04-16T12:46:49.825Z,101076.59
2023-04-16T12:51:52.646Z,101069.94
2023-04-16T12:56:55.543Z,101073.16
2023-04-16T13:02:01.455Z,101073.44
2023-04-16T13:07:06.704Z,101077.78
2023-04-16T13:12:09.447Z,101078.97
2023-04-16T13:17:13.607Z,101088.78
2023-04-16T13:22:16.484Z,101083.72
2023-04-16T13:27:19.286Z,101077.72
2023-04-16T13:32:23.867Z,101067.47
2023-04-16T13:37:26.654Z,101077.56
2023-04-16T13:42:29.490Z,101080.09
2023-04-16T13:47:33.718Z,101071.69
2023-04-16T13:52:36.613Z,101071.03
2023-04-16T13:57:39.831Z,101075.03
2023-04-16T14:02:45.943Z,101069.91
2023-04-16T14:07:48.820Z,101065.88
2023-04-16T14:12:51.958Z,101069.31
2023-04-16T14:17:56.390Z,101060.84
2023-04-16T14:22:59.170Z,101054.84
2023-04-16T14:28:02.049Z,101063.91
2023-04-16T14:33:06.735Z,101058.28
2023-04-16T14:38:09.576Z,101056.94
2023-04-16T14:43:12.306Z,101054.84
2023-04-16T14:48:16.538Z,101060.84
2023-04-16T14:53:19.394Z,101064.75
2023-04-16T14:58:22.629Z,101059.03
2023-04-16T15:03:27.382Z,101055.34
2023-04-16T15:08:30.232Z,101054.50
2023-04-16T15:13:34.606Z,101058.03
2023-04-16T15:18:38.828Z,101064.53
2023-04-16T15:23:41.676Z,101063.28
2023-04-16T15:28:44.501Z,101062.41
2023-04-16T15:33:48.783Z,101063.50
2023-04-16T15:38:51.617Z,101069.63
2023-04-16T15:43:54.474Z,101065.19
2023-04-16T15:48:58.668Z,101063.16
2023-04-16T15:54:01.489Z,101072.88
2023-04-16T15:59:04.337Z,101072.69
2023-04-16T16:04:08.874Z,101077.09
2023-04-16T16:09:12.073Z,101079.41
2023-04-16T16:14:16.787Z,101076.19
2023-04-16T16:19:22.382Z,101082.78
2023-04-16T16:24:25.151Z,101082.28
2023-04-16T16:29:27.889Z,101084.00
2023-04-16T16:34:31.996Z,101091.56
2023-04-16T16:39:36.600Z,101095.94
2023-04-16T16:44:40.760Z,101094.78
2023-04-16T16:49:45.142Z,101102.03
2023-04-16T16:54:47.967Z,101099.28
2023-04-16T16:59:51.492Z,101107.31
2023-04-16T17:04:55.749Z,101098.94
2023-04-16T17:10:01.610Z,101105.19
2023-04-16T17:15:06.492Z,101104.19
2023-04-16T17:20:12.491Z,101097.22
2023-04-16T17:25:15.673Z,101098.31
2023-04-16T17:30:18.860Z,101097.13
2023-04-16T17:35:23.142Z,101089.53
2023-04-16T17:40:26.132Z,101099.75
2023-04-16T17:45:29.115Z,101108.28
2023-04-16T17:50:33.348Z,101110.44
2023-04-16T17:55:36.606Z,101111.00
2023-04-16T18:00:39.543Z,101115.22
2023-04-16T18:05:43.713Z,101128.00
2023-04-16T18:10:46.601Z,101130.25
2023-04-16T18:15:49.603Z,101134.34
2023-04-16T18:20:54.646Z,101134.88
2023-04-16T18:25:57.600Z,101139.63
2023-04-16T18:31:04.911Z,101152.31
2023-04-16T18:36:11.730Z,101153.59
2023-04-16T18:41:17.602Z,101163.81
2023-04-16T18:46:20.557Z,101166.63
2023-04-16T18:51:24.969Z,101172.09
2023-04-16T18:56:30.209Z,101177.66
2023-04-16T19:01:33.122Z,101188.50
2023-04-16T19:06:37.323Z,101184.22
2023-04-16T19:11:40.236Z,101190.34
2023-04-16T19:16:43.320Z,101182.28
2023-04-16T19:21:47.605Z,101190.66
2023-04-16T19:26:50.509Z,101188.84
2023-04-16T19:31:53.465Z,101197.13
2023-04-16T19:36:57.715Z,101198.56
2023-04-16T19:42:01.690Z,101200.31
2023-04-16T19:47:06.151Z,101204.72
2023-04-16T19:52:10.373Z,101203.88
2023-04-16T19:57:13.235Z,101201.38
2023-04-16T20:02:16.091Z,101205.91
2023-04-16T20:07:20.416Z,101207.91
2023-04-16T20:12:23.514Z,101208.78
2023-04-16T20:17:26.618Z,101203.53
2023-04-16T20:22:30.929Z,101202.88
2023-04-16T20:27:34.380Z,101212.00
2023-04-16T20:32:37.605Z,101215.94
2023-04-16T20:37:42.076Z,101216.47
2023-04-16T20:42:46.582Z,101204.31
2023-04-16T20:47:49.504Z,101210.94
2023-04-16T20:52:54.225Z,101210.38
2023-04-16T20:57:57.344Z,101210.38
2023-04-16T21:03:00.458Z,101217.78
2023-04-16T21:08:05.367Z,101227.84
2023-04-16T21:13:10.622Z,101219.03
2023-04-16T21:18:14.115Z,101224.69
2023-04-16T21:23:18.683Z,101225.00
2023-04-16T21:28:21.736Z,101226.13
2023-04-16T21:33:24.879Z,101230.72
2023-04-16T21:38:29.051Z,101232.00
2023-04-16T21:43:32.206Z,101232.94
2023-04-16T21:48:35.201Z,101230.56
2023-04-16T21:53:39.673Z,101229.78
2023-04-16T21:58:42.611Z,101230.06
2023-04-16T22:03:47.433Z,101234.88
2023-04-16T22:08:53.430Z,101238.16
2023-04-16T22:13:57.742Z,101237.28
2023-04-16T22:19:00.556Z,101236.78
2023-04-16T22:24:04.862Z,101240.72
2023-04-16T22:29:07.695Z,101238.16
2023-04-16T22:34:10.462Z,101236.31
2023-04-16T22:39:15.315Z,101235.47
2023-04-16T22:44:18.110Z,101241.09
2023-04-16T22:49:21.164Z,101239.00
2023-04-16T22:54:29.080Z,101238.03
2023-04-16T22:59:32.217Z,101239.09
2023-04-16T23:04:35.162Z,101237.38
2023-04-16T23:09:39.411Z,101235.47
2023-04-16T23:14:45.786Z,101236.22
2023-04-16T23:19:48.564Z,101243.19
2023-04-16T23:24:52.690Z,101250.31
2023-04-16T23:29:55.465Z,101246.66
2023-04-16T23:34:58.494Z,101246.66
2023-04-16T23:40:02.624Z,101248.56
2023-04-16T23:45:05.874Z,101240.53
2023-04-16T23:50:08.993Z,101240.63
2023-04-16T23:55:13.156Z,101248.88
